createdAt,value
2022-10-29T00:01:04.735Z,100.00
2022-10-29T00:03:40.146Z,100.00
2022-10-29T00:06:11.420Z,100.00
2022-10-29T00:08:40.896Z,100.00
2022-10-29T00:11:11.838Z,100.00
2022-10-29T00:13:40.916Z,100.00
2022-10-29T00:16:11.556Z,100.00
2022-10-29T00:18:40.308Z,100.00
2022-10-29T00:21:11.396Z,100.00
2022-10-29T00:23:40.088Z,100.00
2022-10-29T00:26:08.264Z,100.00
2022-10-29T00:28:36.900Z,100.00
2022-10-29T00:31:06.205Z,100.00
2022-10-29T00:33:34.570Z,100.00
2022-10-29T00:36:09.386Z,100.00
2022-10-29T00:38:37.181Z,100.00
2022-10-29T00:41:06.951Z,100.00
2022-10-29T00:43:37.401Z,100.00
2022-10-29T00:46:12.746Z,100.00
2022-10-29T00:48:44.627Z,100.00
2022-10-29T00:51:14.567Z,100.00
2022-10-29T00:53:53.040Z,100.00
2022-10-29T00:56:24.546Z,100.00
2022-10-29T00:58:52.706Z,100.00
2022-10-29T01:01:20.963Z,100.00
2022-10-29T01:03:49.474Z,100.00
2022-10-29T01:06:17.316Z,100.00
2022-10-29T01:08:45.195Z,100.00
2022-10-29T01:11:22.164Z,100.00
2022-10-29T01:14:14.296Z,100.00
2022-10-29T01:17:05.648Z,100.00
2022-10-29T01:20:04.719Z,100.00
2022-10-29T01:22:43.293Z,100.00
2022-10-29T01:25:11.125Z,100.00
2022-10-29T01:27:51.520Z,100.00
2022-10-29T01:30:41.096Z,100.00
2022-10-29T01:33:19.039Z,100.00
2022-10-29T01:36:06.477Z,100.00
2022-10-29T01:38:45.724Z,100.00
2022-10-29T01:41:29.728Z,100.00
2022-10-29T01:44:08.015Z,100.00
2022-10-29T01:46:42.610Z,100.00
2022-10-29T01:49:18.109Z,100.00
2022-10-29T01:51:47.490Z,100.00
2022-10-29T01:54:15.404Z,100.00
2022-10-29T01:56:43.369Z,100.00
2022-10-29T01:59:23.071Z,100.00
2022-10-29T02:02:15.706Z,100.00
2022-10-29T02:05:05.175Z,100.00
2022-10-29T02:07:40.589Z,100.00
2022-10-29T02:10:31.783Z,100.00
2022-10-29T02:12:59.948Z,100.00
2022-10-29T02:15:35.281Z,100.00
2022-10-29T02:18:06.392Z,100.00
2022-10-29T02:20:35.249Z,100.00
2022-10-29T02:23:02.997Z,100.00
2022-10-29T02:25:30.709Z,100.00
2022-10-29T02:28:00.230Z,100.00
2022-10-29T02:30:28.289Z,100.00
2022-10-29T02:32:56.507Z,100.00
2022-10-29T02:35:24.658Z,100.00
2022-10-29T02:37:52.549Z,100.00
2022-10-29T02:40:21.396Z,100.00
2022-10-29T02:42:49.111Z,100.00
2022-10-29T02:45:16.868Z,100.00
2022-10-29T02:47:44.730Z,100.00
2022-10-29T02:50:15.304Z,100.00
2022-10-29T02:52:43.180Z,100.00
2022-10-29T02:55:11.044Z,100.00
2022-10-29T02:57:38.780Z,100.00
2022-10-29T03:00:07.315Z,100.00
2022-10-29T03:02:35.196Z,100.00
2022-10-29T03:05:03.493Z,100.00
2022-10-29T03:07:35.851Z,100.00
2022-10-29T03:10:08.245Z,100.00
2022-10-29T03:12:36.077Z,100.00
2022-10-29T03:15:04.068Z,100.00
2022-10-29T03:17:31.810Z,100.00
2022-10-29T03:19:59.480Z,100.00
2022-10-29T03:22:27.219Z,100.00
2022-10-29T03:24:54.992Z,100.00
2022-10-29T03:27:22.754Z,100.00
2022-10-29T03:29:50.600Z,100.00
2022-10-29T03:32:18.280Z,100.00
2022-10-29T03:34:46.038Z,100.00
2022-10-29T03:37:13.847Z,100.00
2022-10-29T03:39:41.635Z,100.00
2022-10-29T03:42:09.432Z,100.00
2022-10-29T03:44:37.236Z,100.00
2022-10-29T03:47:04.989Z,100.00
2022-10-29T03:49:32.750Z,100.00
2022-10-29T03:52:00.569Z,100.00
2022-10-29T03:54:28.322Z,100.00
2022-10-29T03:56:56.186Z,100.00
2022-10-29T03:59:24.056Z,100.00
2022-10-29T04:01:51.958Z,100.00
2022-10-29T04:04:19.806Z,100.00
2022-10-29T04:06:47.546Z,100.00
2022-10-29T04:09:15.209Z,100.00
2022-10-29T04:11:43.012Z,100.00
2022-10-29T04:14:10.875Z,100.00
2022-10-29T04:16:38.875Z,100.00
2022-10-29T04:19:06.864Z,100.00
2022-10-29T04:29:57.831Z,100.00
2022-10-29T04:32:25.880Z,100.00
2022-10-29T04:34:53.648Z,100.00
2022-10-29T04:37:21.357Z,100.00
2022-10-29T04:39:49.167Z,100.00
2022-10-29T04:42:16.897Z,100.00
2022-10-29T04:44:44.797Z,100.00
2022-10-29T04:47:12.546Z,100.00
2022-10-29T04:49:40.541Z,100.00
2022-10-29T04:52:08.284Z,100.00
2022-10-29T04:54:35.978Z,100.00
2022-10-29T04:57:03.846Z,100.00
2022-10-29T04:59:31.730Z,100.00
2022-10-29T05:02:00.984Z,100.00
2022-10-29T05:04:29.600Z,100.00
2022-10-29T05:06:57.389Z,100.00
2022-10-29T05:09:25.037Z,100.00
2022-10-29T05:11:52.747Z,100.00
2022-10-29T05:14:20.557Z,100.00
2022-10-29T05:16:48.399Z,100.00
2022-10-29T05:19:16.175Z,100.00
2022-10-29T05:21:43.974Z,100.00
2022-10-29T05:24:11.953Z,100.00
2022-10-29T05:26:39.655Z,100.00
2022-10-29T05:29:07.377Z,100.00
2022-10-29T05:31:35.060Z,100.00
2022-10-29T05:34:02.881Z,100.00
2022-10-29T05:36:30.808Z,100.00
2022-10-29T05:38:58.622Z,100.00
2022-10-29T05:41:26.381Z,100.00
2022-10-29T05:43:54.221Z,100.00
2022-10-29T05:46:22.021Z,100.00
2022-10-29T05:48:49.813Z,100.00
2022-10-29T05:51:17.720Z,100.00
2022-10-29T05:53:45.665Z,100.00
2022-10-29T05:56:13.844Z,100.00
2022-10-29T05:58:41.747Z,100.00
2022-10-29T06:01:11.122Z,100.00
2022-10-29T06:03:39.534Z,100.00
2022-10-29T06:06:07.713Z,100.00
2022-10-29T06:08:35.573Z,100.00
2022-10-29T06:11:04.086Z,100.00
2022-10-29T06:13:31.879Z,100.00
2022-10-29T06:16:00.608Z,100.00
2022-10-29T06:18:29.201Z,100.00
2022-10-29T06:21:00.796Z,100.00
2022-10-29T06:23:29.679Z,100.00
2022-10-29T06:26:03.525Z,100.00
2022-10-29T06:28:34.860Z,100.00
2022-10-29T06:31:03.260Z,100.00
2022-10-29T06:33:32.139Z,100.00
2022-10-29T06:36:01.210Z,100.00
2022-10-29T06:38:29.007Z,100.00
2022-10-29T06:40:56.821Z,100.00
2022-10-29T06:43:24.508Z,100.00
2022-10-29T06:45:52.346Z,100.00
2022-10-29T06:48:22.458Z,100.00
2022-10-29T06:50:51.326Z,100.00
2022-10-29T06:53:19.771Z,100.00
2022-10-29T06:55:47.515Z,100.00
2022-10-29T06:58:17.891Z,100.00
2022-10-29T07:00:46.611Z,100.00
2022-10-29T07:03:19.818Z,100.00
2022-10-29T07:05:48.179Z,100.00
2022-10-29T07:08:15.943Z,100.00
2022-10-29T07:10:43.741Z,100.00
2022-10-29T07:13:11.663Z,100.00
2022-10-29T07:15:39.477Z,100.00
2022-10-29T07:18:08.678Z,100.00
2022-10-29T07:20:40.295Z,100.00
2022-10-29T07:23:08.923Z,100.00
2022-10-29T07:25:38.417Z,100.00
2022-10-29T07:28:07.657Z,100.00
2022-10-29T07:30:35.411Z,100.00
2022-10-29T07:33:03.213Z,100.00
2022-10-29T07:35:31.094Z,100.00
2022-10-29T07:38:07.071Z,100.00
2022-10-29T07:40:40.390Z,100.00
2022-10-29T07:43:09.479Z,100.00
2022-10-29T07:45:37.588Z,100.00
2022-10-29T07:48:09.669Z,100.00
2022-10-29T07:50:38.838Z,100.00
2022-10-29T07:53:07.806Z,100.00
2022-10-29T07:55:36.312Z,100.00
2022-10-29T07:58:07.091Z,100.00
2022-10-29T08:00:37.192Z,100.00
2022-10-29T08:03:05.986Z,100.00
2022-10-29T08:05:34.208Z,100.00
2022-10-29T08:08:02.189Z,100.00
2022-10-29T08:10:31.437Z,100.00
2022-10-29T08:13:01.937Z,100.00
2022-10-29T08:15:30.984Z,100.00
2022-10-29T08:17:59.351Z,100.00
2022-10-29T08:20:28.799Z,100.00
2022-10-29T08:22:59.949Z,100.00
2022-10-29T08:25:28.182Z,100.00
2022-10-29T08:28:03.723Z,100.00
2022-10-29T08:30:32.164Z,100.00
2022-10-29T08:33:01.161Z,100.00
2022-10-29T08:35:29.423Z,100.00
2022-10-29T08:37:58.213Z,100.00
2022-10-29T08:40:30.531Z,100.00
2022-10-29T08:43:31.959Z,100.00
2022-10-29T08:45:59.880Z,100.00
2022-10-29T08:49:01.554Z,100.00
2022-10-29T08:51:36.079Z,100.00
2022-10-29T08:54:29.843Z,100.00
2022-10-29T08:56:54.994Z,100.00
2022-10-29T08:59:24.843Z,100.00
2022-10-29T09:01:53.859Z,100.00
2022-10-29T09:04:21.929Z,100.00
2022-10-29T09:07:09.172Z,100.00
2022-10-29T09:09:43.712Z,100.00
2022-10-29T09:12:41.064Z,100.00
2022-10-29T09:15:11.986Z,100.00
2022-10-29T09:18:02.700Z,100.00
2022-10-29T09:20:46.669Z,100.00
2022-10-29T09:23:29.544Z,100.00
2022-10-29T09:26:04.274Z,100.00
2022-10-29T09:28:34.976Z,100.00
2022-10-29T09:31:30.315Z,100.00
2022-10-29T09:34:06.010Z,100.00
2022-10-29T09:36:33.741Z,100.00
2022-10-29T09:39:12.382Z,100.00
2022-10-29T09:41:40.959Z,100.00
2022-10-29T09:44:38.656Z,100.00
2022-10-29T09:47:25.417Z,100.00
2022-10-29T09:50:20.199Z,100.00
2022-10-29T09:52:49.551Z,100.00
2022-10-29T09:55:34.128Z,100.00
2022-10-29T09:58:01.958Z,100.00
2022-10-29T10:00:31.563Z,100.00
2022-10-29T10:03:11.646Z,100.00
2022-10-29T10:05:59.529Z,100.00
2022-10-29T10:08:27.697Z,100.00
2022-10-29T10:10:57.919Z,100.00
2022-10-29T10:13:29.666Z,100.00
2022-10-29T10:16:03.432Z,100.00
2022-10-29T10:18:31.310Z,100.00
2022-10-29T10:21:12.920Z,99.63
2022-10-29T10:23:51.816Z,99.85
2022-10-29T10:26:31.975Z,99.97
2022-10-29T10:29:05.597Z,99.07
2022-10-29T10:31:33.416Z,99.55
2022-10-29T10:34:28.185Z,99.67
2022-10-29T10:37:10.416Z,99.31
2022-10-29T10:39:43.577Z,99.48
2022-10-29T10:42:26.361Z,99.68
2022-10-29T10:45:05.348Z,99.62
2022-10-29T10:47:36.769Z,99.91
2022-10-29T10:50:22.712Z,99.96
2022-10-29T10:52:55.423Z,100.00
2022-10-29T10:55:40.590Z,100.00
2022-10-29T10:58:23.372Z,99.88
2022-10-29T11:01:14.332Z,99.04
2022-10-29T11:03:48.776Z,98.88
2022-10-29T11:06:20.545Z,99.17
2022-10-29T11:08:48.252Z,98.02
2022-10-29T11:11:34.588Z,98.40
2022-10-29T11:14:13.455Z,98.36
2022-10-29T11:16:53.880Z,98.12
2022-10-29T11:19:36.646Z,98.21
2022-10-29T11:22:17.041Z,97.90
2022-10-29T11:24:51.291Z,98.25
2022-10-29T11:27:43.157Z,97.58
2022-10-29T11:30:16.941Z,97.64
2022-10-29T11:32:58.833Z,98.40
2022-10-29T11:35:50.509Z,98.83
2022-10-29T11:38:37.504Z,98.46
2022-10-29T11:41:29.448Z,98.21
2022-10-29T11:43:57.228Z,98.88
2022-10-29T11:46:27.799Z,98.98
2022-10-29T11:48:55.816Z,98.05
2022-10-29T11:51:26.385Z,98.16
2022-10-29T11:53:56.685Z,98.59
2022-10-29T11:56:43.184Z,98.43
2022-10-29T11:59:40.648Z,98.85
2022-10-29T12:02:29.994Z,99.01
2022-10-29T12:04:57.812Z,99.18
2022-10-29T12:07:48.499Z,99.15
2022-10-29T12:10:28.151Z,99.00
2022-10-29T12:13:26.371Z,99.11
2022-10-29T12:16:25.760Z,98.46
2022-10-29T12:19:26.588Z,98.00
2022-10-29T12:22:06.254Z,98.96
2022-10-29T12:24:36.934Z,99.03
2022-10-29T12:27:10.906Z,98.70
2022-10-29T12:30:05.344Z,98.13
2022-10-29T12:32:54.282Z,98.73
2022-10-29T12:35:40.667Z,98.80
2022-10-29T12:38:32.946Z,99.01
2022-10-29T12:41:16.515Z,99.10
2022-10-29T12:43:45.347Z,98.70
2022-10-29T12:46:20.766Z,98.84
2022-10-29T12:48:55.001Z,99.33
2022-10-29T12:51:25.698Z,100.00
2022-10-29T12:54:12.859Z,99.94
2022-10-29T12:56:43.920Z,100.00
2022-10-29T12:59:23.354Z,99.85
2022-10-29T13:05:06.504Z,99.45
2022-10-29T13:07:34.741Z,99.97
2022-10-29T13:10:27.158Z,99.98
2022-10-29T13:13:05.575Z,100.00
2022-10-29T13:15:43.154Z,100.00
2022-10-29T13:18:32.117Z,100.00
2022-10-29T13:20:59.918Z,100.00
2022-10-29T13:23:29.112Z,100.00
2022-10-29T13:26:04.224Z,100.00
2022-10-29T13:28:37.720Z,100.00
2022-10-29T13:31:08.513Z,100.00
2022-10-29T13:33:36.300Z,100.00
2022-10-29T13:36:16.268Z,100.00
2022-10-29T13:39:05.733Z,100.00
2022-10-29T13:41:42.747Z,100.00
2022-10-29T13:44:25.171Z,100.00
2022-10-29T13:47:03.463Z,100.00
2022-10-29T13:49:47.354Z,100.00
2022-10-29T13:52:21.830Z,100.00
2022-10-29T13:55:05.154Z,100.00
2022-10-29T13:57:57.642Z,100.00
2022-10-29T14:00:29.366Z,100.00
2022-10-29T14:03:33.953Z,100.00
2022-10-29T14:06:22.866Z,100.00
2022-10-29T14:08:57.601Z,100.00
2022-10-29T14:11:38.745Z,100.00
2022-10-29T14:14:51.860Z,100.00
2022-10-29T14:17:20.022Z,100.00
2022-10-29T14:19:50.615Z,100.00
2022-10-29T14:22:19.057Z,100.00
2022-10-29T14:24:46.863Z,100.00
2022-10-29T14:27:17.575Z,100.00
2022-10-29T14:29:45.386Z,100.00
2022-10-29T14:32:15.543Z,100.00
2022-10-29T14:34:45.316Z,100.00
2022-10-29T14:37:29.284Z,100.00
2022-10-29T14:40:01.611Z,100.00
2022-10-29T14:42:37.732Z,100.00
2022-10-29T14:45:19.240Z,100.00
2022-10-29T14:47:52.601Z,100.00
2022-10-29T14:50:23.804Z,100.00
2022-10-29T14:52:57.949Z,100.00
2022-10-29T14:55:34.454Z,100.00
2022-10-29T14:58:14.748Z,100.00
2022-10-29T15:01:14.076Z,100.00
2022-10-29T15:03:42.443Z,100.00
2022-10-29T15:06:18.373Z,100.00
2022-10-29T15:09:01.354Z,100.00
2022-10-29T15:11:48.131Z,100.00
2022-10-29T15:14:30.876Z,100.00
2022-10-29T15:17:00.193Z,100.00
2022-10-29T15:19:28.863Z,100.00
2022-10-29T15:21:56.965Z,100.00
2022-10-29T15:24:25.017Z,100.00
2022-10-29T15:26:57.130Z,100.00
2022-10-29T15:29:33.938Z,100.00
2022-10-29T15:32:02.890Z,100.00
2022-10-29T15:34:35.288Z,100.00
2022-10-29T15:37:22.875Z,100.00
2022-10-29T15:39:56.743Z,100.00
2022-10-29T15:42:33.108Z,100.00
2022-10-29T15:45:23.058Z,100.00
2022-10-29T15:47:50.786Z,100.00
2022-10-29T15:50:30.537Z,100.00
2022-10-29T15:53:01.954Z,100.00
2022-10-29T15:55:32.005Z,100.00
2022-10-29T15:58:11.363Z,100.00
2022-10-29T16:00:39.239Z,100.00
2022-10-29T16:03:15.564Z,100.00
2022-10-29T16:05:45.863Z,100.00
2022-10-29T16:08:25.199Z,100.00
2022-10-29T16:10:54.083Z,100.00
2022-10-29T16:13:23.543Z,100.00
2022-10-29T16:15:51.755Z,100.00
2022-10-29T16:18:19.877Z,100.00
2022-10-29T16:20:50.138Z,100.00
2022-10-29T16:23:17.862Z,100.00
2022-10-29T16:25:45.755Z,100.00
2022-10-29T16:28:16.577Z,100.00
2022-10-29T16:30:50.618Z,100.00
2022-10-29T16:33:19.370Z,100.00
2022-10-29T16:35:47.801Z,100.00
2022-10-29T16:38:18.484Z,100.00
2022-10-29T16:40:46.161Z,100.00
2022-10-29T16:43:13.834Z,100.00
2022-10-29T16:45:41.596Z,100.00
2022-10-29T16:48:09.733Z,100.00
2022-10-29T16:50:37.526Z,100.00
2022-10-29T16:53:08.249Z,100.00
2022-10-29T16:55:38.851Z,100.00
2022-10-29T16:58:11.572Z,100.00
2022-10-29T17:00:39.875Z,100.00
2022-10-29T17:03:11.694Z,100.00
2022-10-29T17:05:42.657Z,100.00
2022-10-29T17:08:11.392Z,100.00
2022-10-29T17:10:40.888Z,100.00
2022-10-29T17:13:11.295Z,100.00
2022-10-29T17:15:42.231Z,100.00
2022-10-29T17:18:10.522Z,100.00
2022-10-29T17:20:38.301Z,100.00
2022-10-29T17:23:07.144Z,100.00
2022-10-29T17:25:35.169Z,100.00
2022-10-29T17:28:03.338Z,100.00
2022-10-29T17:30:31.196Z,100.00
2022-10-29T17:32:59.286Z,100.00
2022-10-29T17:35:27.399Z,100.00
2022-10-29T17:37:55.155Z,100.00
2022-10-29T17:40:24.134Z,100.00
2022-10-29T17:42:51.999Z,100.00
2022-10-29T17:45:22.604Z,100.00
2022-10-29T17:47:59.997Z,100.00
2022-10-29T17:50:28.268Z,100.00
2022-10-29T17:52:57.898Z,100.00
2022-10-29T17:55:25.821Z,100.00
2022-10-29T17:57:53.602Z,100.00
2022-10-29T18:00:21.744Z,100.00
2022-10-29T18:02:50.892Z,100.00
2022-10-29T18:05:18.883Z,100.00
2022-10-29T18:07:46.786Z,100.00
2022-10-29T18:10:15.882Z,100.00
2022-10-29T18:12:43.708Z,100.00
2022-10-29T18:15:11.500Z,100.00
2022-10-29T18:17:40.696Z,100.00
2022-10-29T18:20:09.194Z,100.00
2022-10-29T18:22:37.102Z,100.00
2022-10-29T18:25:05.228Z,100.00
2022-10-29T18:27:32.907Z,100.00
2022-10-29T18:30:00.964Z,100.00
2022-10-29T18:32:28.792Z,100.00
2022-10-29T18:34:57.100Z,100.00
2022-10-29T18:37:25.036Z,100.00
2022-10-29T18:39:52.903Z,100.00
2022-10-29T18:42:20.630Z,100.00
2022-10-29T18:44:48.399Z,100.00
2022-10-29T18:47:16.164Z,100.00
2022-10-29T18:49:44.019Z,100.00
2022-10-29T18:52:11.748Z,100.00
2022-10-29T18:54:40.931Z,100.00
2022-10-29T18:57:08.876Z,100.00
2022-10-29T18:59:37.600Z,100.00
2022-10-29T19:02:05.554Z,100.00
2022-10-29T19:04:33.407Z,100.00
2022-10-29T19:07:01.369Z,100.00
2022-10-29T19:09:30.156Z,100.00
2022-10-29T19:11:59.509Z,100.00
2022-10-29T19:14:27.593Z,100.00
2022-10-29T19:16:55.312Z,100.00
2022-10-29T19:19:24.141Z,100.00
2022-10-29T19:21:52.110Z,100.00
2022-10-29T19:24:20.114Z,100.00
2022-10-29T19:26:48.037Z,100.00
2022-10-29T19:29:16.122Z,100.00
2022-10-29T19:31:45.201Z,100.00
2022-10-29T19:34:13.184Z,100.00
2022-10-29T19:36:41.055Z,100.00
2022-10-29T19:39:09.149Z,100.00
2022-10-29T19:41:37.091Z,100.00
2022-10-29T19:44:05.144Z,100.00
2022-10-29T19:46:33.878Z,100.00
2022-10-29T19:49:01.686Z,100.00
2022-10-29T19:51:32.631Z,100.00
2022-10-29T19:54:02.469Z,100.00
2022-10-29T19:56:30.349Z,100.00
2022-10-29T19:58:58.161Z,100.00
2022-10-29T20:01:26.047Z,100.00
2022-10-29T20:03:54.060Z,100.00
2022-10-29T20:06:21.948Z,100.00
2022-10-29T20:08:50.153Z,100.00
2022-10-29T20:11:18.199Z,100.00
2022-10-29T20:13:46.583Z,100.00
2022-10-29T20:16:20.531Z,100.00
2022-10-29T20:18:48.815Z,100.00
2022-10-29T20:21:16.894Z,100.00
2022-10-29T20:23:45.323Z,100.00
2022-10-29T20:26:13.652Z,100.00
2022-10-29T20:28:41.938Z,100.00
2022-10-29T20:31:16.582Z,100.00
2022-10-29T20:33:52.988Z,100.00
2022-10-29T20:36:21.408Z,100.00
2022-10-29T20:38:50.956Z,100.00
2022-10-29T20:41:19.074Z,100.00
2022-10-29T20:43:53.054Z,100.00
2022-10-29T20:46:22.103Z,100.00
2022-10-29T20:48:50.156Z,100.00
2022-10-29T20:51:18.267Z,100.00
2022-10-29T20:53:46.710Z,100.00
2022-10-29T20:56:16.366Z,100.00
2022-10-29T20:58:44.670Z,100.00
2022-10-29T21:01:15.550Z,100.00
2022-10-29T21:03:43.792Z,100.00
2022-10-29T21:06:16.910Z,100.00
2022-10-29T21:08:47.378Z,100.00
2022-10-29T21:11:17.003Z,100.00
2022-10-29T21:13:45.303Z,100.00
2022-10-29T21:16:22.538Z,100.00
2022-10-29T21:18:53.679Z,100.00
2022-10-29T21:21:21.662Z,100.00
2022-10-29T21:23:49.782Z,100.00
2022-10-29T21:26:20.458Z,100.00
2022-10-29T21:28:49.988Z,100.00
2022-10-29T21:31:18.958Z,100.00
2022-10-29T21:33:49.896Z,100.00
2022-10-29T21:36:17.898Z,100.00
2022-10-29T21:38:45.747Z,100.00
2022-10-29T21:41:13.846Z,100.00
2022-10-29T21:43:41.769Z,100.00
2022-10-29T21:46:09.746Z,100.00
2022-10-29T21:48:37.808Z,100.00
2022-10-29T21:51:09.768Z,100.00
2022-10-29T21:53:37.985Z,100.00
2022-10-29T21:56:08.068Z,100.00
2022-10-29T21:58:36.040Z,100.00
2022-10-29T22:01:17.453Z,100.00
2022-10-29T22:03:47.052Z,100.00
2022-10-29T22:06:16.325Z,100.00
2022-10-29T22:08:45.649Z,100.00
2022-10-29T22:11:15.215Z,100.00
2022-10-29T22:13:43.063Z,100.00
2022-10-29T22:16:11.514Z,100.00
2022-10-29T22:18:39.705Z,100.00
2022-10-29T22:21:19.559Z,100.00
2022-10-29T22:23:52.664Z,100.00
2022-10-29T22:26:23.617Z,100.00
2022-10-29T22:28:51.593Z,100.00
2022-10-29T22:31:21.273Z,100.00
2022-10-29T22:33:49.844Z,100.00
2022-10-29T22:36:20.274Z,100.00
2022-10-29T22:38:53.137Z,100.00
2022-10-29T22:41:21.642Z,100.00
2022-10-29T22:43:49.558Z,100.00
2022-10-29T22:46:19.052Z,100.00
2022-10-29T22:48:46.970Z,100.00
2022-10-29T22:51:22.278Z,100.00
2022-10-29T22:53:51.553Z,100.00
2022-10-29T22:56:23.779Z,100.00
2022-10-29T22:58:52.484Z,100.00
2022-10-29T23:01:32.008Z,100.00
2022-10-29T23:04:00.620Z,100.00
2022-10-29T23:06:28.888Z,100.00
2022-10-29T23:09:04.057Z,100.00
2022-10-29T23:11:34.957Z,100.00
2022-10-29T23:14:02.920Z,100.00
2022-10-29T23:16:32.924Z,100.00
2022-10-29T23:19:03.094Z,100.00
2022-10-29T23:21:31.683Z,100.00
2022-10-29T23:23:59.643Z,100.00
2022-10-29T23:26:29.044Z,100.00
2022-10-29T23:28:56.779Z,100.00
2022-10-29T23:31:26.432Z,100.00
2022-10-29T23:33:56.202Z,100.00
2022-10-29T23:36:26.183Z,100.00
2022-10-29T23:38:58.954Z,100.00
2022-10-29T23:41:28.358Z,100.00
2022-10-29T23:43:57.136Z,100.00
2022-10-29T23:46:25.190Z,100.00
2022-10-29T23:48:53.283Z,100.00
2022-10-29T23:51:21.094Z,100.00
2022-10-29T23:53:53.108Z,100.00
2022-10-29T23:56:25.920Z,100.00
2022-10-29T23:58:53.724Z,100.00
